AAY2713 KJFK-KTYS
Flight info
| Callsign | AAY2713 |
|---|---|
| Flight time | 1h 46m |
| Altitude | 36000 |
| Route | RBV Q430 BYRDD J48 CSN FANPO Q40 ALEAN VXV |
| Aircraft | A320/M-SDE3FGHIRWY/LB1 |
Departure
| Time | 2026-05-07 23:54 |
|---|---|
| Airport | John F. Kennedy International Airport (KJFK) |
Arrival
| Time | 2026-05-08 01:40 |
|---|---|
| Airport | McGhee Tyson Airport (KTYS) |
| Time | Latitude | Longitude | Altitude | Speed | Heading |
|---|---|---|---|---|---|
| 2026-05-07 23:28 | 40.64925 | -73.79582 | 16 ft | 0 kts | 77° |
| 2026-05-07 23:39 | 40.64924 | -73.79584 | 16 ft | 1 kts | 76° |
| 2026-05-07 23:39 | 40.64919 | -73.79604 | 16 ft | 3 kts | 42° |
| 2026-05-07 23:39 | 40.64903 | -73.79615 | 18 ft | 3 kts | 6° |
| 2026-05-07 23:39 | 40.64886 | -73.79617 | 17 ft | 2 kts | 0° |
| 2026-05-07 23:40 | 40.64877 | -73.79617 | 17 ft | 1 kts | 1° |
| 2026-05-07 23:40 | 40.64876 | -73.79617 | 18 ft | 0 kts | 1° |
| 2026-05-07 23:43 | 40.64885 | -73.79616 | 17 ft | 6 kts | 1° |
| 2026-05-07 23:43 | 40.64933 | -73.79616 | 16 ft | 8 kts | 0° |
| 2026-05-07 23:43 | 40.64990 | -73.79604 | 16 ft | 5 kts | 22° |
| 2026-05-07 23:44 | 40.64991 | -73.79603 | 16 ft | 0 kts | 22° |
| 2026-05-07 23:46 | 40.64993 | -73.79602 | 16 ft | 2 kts | 22° |
| 2026-05-07 23:46 | 40.65021 | -73.79591 | 18 ft | 6 kts | 3° |
| 2026-05-07 23:46 | 40.65040 | -73.79649 | 16 ft | 7 kts | 265° |
| 2026-05-07 23:46 | 40.64989 | -73.79700 | 16 ft | 12 kts | 191° |
| 2026-05-07 23:47 | 40.64890 | -73.79702 | 16 ft | 17 kts | 182° |
| 2026-05-07 23:47 | 40.64771 | -73.79678 | 16 ft | 17 kts | 150° |
| 2026-05-07 23:47 | 40.64677 | -73.79595 | 16 ft | 15 kts | 143° |
| 2026-05-07 23:47 | 40.64591 | -73.79522 | 16 ft | 14 kts | 155° |
| 2026-05-07 23:48 | 40.64495 | -73.79496 | 16 ft | 16 kts | 176° |
| 2026-05-07 23:48 | 40.64368 | -73.79487 | 16 ft | 20 kts | 180° |
| 2026-05-07 23:48 | 40.64211 | -73.79500 | 16 ft | 24 kts | 185° |
| 2026-05-07 23:48 | 40.64065 | -73.79467 | 16 ft | 20 kts | 140° |
| 2026-05-07 23:49 | 40.63991 | -73.79322 | 16 ft | 19 kts | 121° |
| 2026-05-07 23:49 | 40.63917 | -73.79158 | 16 ft | 23 kts | 120° |
| 2026-05-07 23:49 | 40.63835 | -73.78975 | 16 ft | 23 kts | 121° |
| 2026-05-07 23:49 | 40.63757 | -73.78803 | 16 ft | 22 kts | 121° |
| 2026-05-07 23:50 | 40.63679 | -73.78632 | 16 ft | 21 kts | 121° |
| 2026-05-07 23:50 | 40.63608 | -73.78476 | 16 ft | 19 kts | 120° |
| 2026-05-07 23:50 | 40.63544 | -73.78334 | 16 ft | 17 kts | 121° |
| 2026-05-07 23:50 | 40.63486 | -73.78208 | 16 ft | 15 kts | 121° |
| 2026-05-07 23:51 | 40.63435 | -73.78094 | 16 ft | 14 kts | 120° |
| 2026-05-07 23:51 | 40.63390 | -73.77991 | 16 ft | 13 kts | 119° |
| 2026-05-07 23:51 | 40.63335 | -73.77859 | 17 ft | 21 kts | 118° |
| 2026-05-07 23:51 | 40.63252 | -73.77669 | 21 ft | 28 kts | 122° |
| 2026-05-07 23:52 | 40.63136 | -73.77421 | 16 ft | 32 kts | 122° |
| 2026-05-07 23:52 | 40.63035 | -73.77199 | 16 ft | 24 kts | 120° |
| 2026-05-07 23:52 | 40.62970 | -73.77080 | 16 ft | 13 kts | 147° |
| 2026-05-07 23:52 | 40.62916 | -73.77097 | 16 ft | 8 kts | 211° |
| 2026-05-07 23:53 | 40.62876 | -73.77133 | 17 ft | 6 kts | 216° |
| 2026-05-07 23:53 | 40.62830 | -73.77185 | 16 ft | 12 kts | 237° |
| 2026-05-07 23:53 | 40.62853 | -73.77305 | 16 ft | 17 kts | 299° |
| 2026-05-07 23:53 | 40.63007 | -73.77629 | 16 ft | 75 kts | 301° |
| 2026-05-07 23:54 | 40.63379 | -73.78450 | 19 ft | 132 kts | 301° |
| 2026-05-07 23:54 | 40.63886 | -73.79629 | 215 ft | 159 kts | 302° |
| 2026-05-07 23:54 | 40.64430 | -73.80944 | 772 ft | 170 kts | 302° |
| 2026-05-07 23:54 | 40.64986 | -73.82417 | 1269 ft | 192 kts | 287° |
| 2026-05-07 23:55 | 40.64851 | -73.84260 | 1725 ft | 220 kts | 248° |
| 2026-05-07 23:55 | 40.63936 | -73.86013 | 2182 ft | 248 kts | 226° |
| 2026-05-07 23:55 | 40.62610 | -73.87596 | 2819 ft | 263 kts | 225° |
| 2026-05-07 23:55 | 40.61127 | -73.89018 | 3715 ft | 270 kts | 203° |
| 2026-05-07 23:56 | 40.59261 | -73.89328 | 4586 ft | 280 kts | 174° |
| 2026-05-07 23:56 | 40.57247 | -73.88874 | 4916 ft | 308 kts | 170° |
| 2026-05-07 23:56 | 40.55046 | -73.88266 | 5136 ft | 337 kts | 163° |
| 2026-05-07 23:56 | 40.52810 | -73.87153 | 5839 ft | 343 kts | 160° |
| 2026-05-07 23:57 | 40.50543 | -73.86595 | 7232 ft | 323 kts | 184° |
| 2026-05-07 23:57 | 40.48446 | -73.87235 | 8659 ft | 299 kts | 210° |
| 2026-05-07 23:57 | 40.46835 | -73.88761 | 9986 ft | 277 kts | 232° |
| 2026-05-07 23:57 | 40.45768 | -73.90809 | 10840 ft | 275 kts | 243° |
| 2026-05-07 23:58 | 40.44791 | -73.93087 | 11067 ft | 298 kts | 243° |
| 2026-05-07 23:58 | 40.43763 | -73.95518 | 11289 ft | 318 kts | 243° |
| 2026-05-07 23:58 | 40.42657 | -73.98116 | 11905 ft | 323 kts | 243° |
| 2026-05-07 23:58 | 40.41553 | -74.00688 | 12738 ft | 323 kts | 242° |
| 2026-05-07 23:59 | 40.40443 | -74.03247 | 13582 ft | 322 kts | 242° |
| 2026-05-07 23:59 | 40.39335 | -74.05794 | 14318 ft | 322 kts | 242° |
| 2026-05-07 23:59 | 40.38235 | -74.08322 | 14978 ft | 324 kts | 242° |
| 2026-05-07 23:59 | 40.37115 | -74.10895 | 15603 ft | 326 kts | 242° |
| 2026-05-08 00:00 | 40.35986 | -74.13487 | 16241 ft | 328 kts | 241° |
| 2026-05-08 00:00 | 40.34852 | -74.16095 | 16844 ft | 330 kts | 241° |
| 2026-05-08 00:00 | 40.33716 | -74.18716 | 17459 ft | 333 kts | 241° |
| 2026-05-08 00:00 | 40.32560 | -74.21374 | 18050 ft | 335 kts | 241° |
| 2026-05-08 00:01 | 40.31405 | -74.24021 | 18565 ft | 337 kts | 242° |
| 2026-05-08 00:01 | 40.30227 | -74.26717 | 19068 ft | 340 kts | 242° |
| 2026-05-08 00:01 | 40.29047 | -74.29412 | 19555 ft | 342 kts | 242° |
| 2026-05-08 00:01 | 40.27874 | -74.32092 | 20034 ft | 345 kts | 242° |
| 2026-05-08 00:02 | 40.27065 | -74.33940 | 20345 ft | 346 kts | 242° |
| 2026-05-08 00:02 | 40.25863 | -74.36689 | 20823 ft | 349 kts | 242° |
| 2026-05-08 00:02 | 40.24261 | -74.40347 | 21424 ft | 352 kts | 242° |
| 2026-05-08 00:02 | 40.23035 | -74.43142 | 21907 ft | 354 kts | 242° |
| 2026-05-08 00:03 | 40.22203 | -74.45036 | 22200 ft | 356 kts | 242° |
| 2026-05-08 00:03 | 40.21021 | -74.47883 | 22648 ft | 357 kts | 247° |
| 2026-05-08 00:03 | 40.20223 | -74.50969 | 23084 ft | 359 kts | 257° |
| 2026-05-08 00:03 | 40.19875 | -74.54205 | 23496 ft | 362 kts | 263° |
| 2026-05-08 00:04 | 40.19630 | -74.57484 | 23876 ft | 363 kts | 263° |
| 2026-05-08 00:04 | 40.19375 | -74.60775 | 24270 ft | 364 kts | 263° |
| 2026-05-08 00:04 | 40.19120 | -74.63979 | 24656 ft | 364 kts | 263° |
| 2026-05-08 00:04 | 40.18856 | -74.67292 | 25064 ft | 365 kts | 263° |
| 2026-05-08 00:05 | 40.18596 | -74.70553 | 25452 ft | 365 kts | 263° |
| 2026-05-08 00:05 | 40.18332 | -74.73852 | 25835 ft | 366 kts | 263° |
| 2026-05-08 00:05 | 40.18065 | -74.77176 | 26207 ft | 367 kts | 263° |
| 2026-05-08 00:05 | 40.17799 | -74.80494 | 26566 ft | 368 kts | 263° |
| 2026-05-08 00:06 | 40.17531 | -74.83834 | 26913 ft | 369 kts | 263° |
| 2026-05-08 00:06 | 40.17263 | -74.87164 | 27260 ft | 369 kts | 263° |
| 2026-05-08 00:06 | 40.16993 | -74.90516 | 27616 ft | 370 kts | 263° |
| 2026-05-08 00:06 | 40.16721 | -74.93863 | 27966 ft | 371 kts | 263° |
| 2026-05-08 00:07 | 40.16448 | -74.97214 | 28307 ft | 371 kts | 263° |
| 2026-05-08 00:07 | 40.16174 | -75.00567 | 28675 ft | 371 kts | 263° |
| 2026-05-08 00:07 | 40.15899 | -75.03909 | 29155 ft | 368 kts | 263° |
| 2026-05-08 00:07 | 40.15624 | -75.07219 | 29671 ft | 365 kts | 263° |
| 2026-05-08 00:08 | 40.15352 | -75.10494 | 30144 ft | 361 kts | 263° |
| 2026-05-08 00:08 | 40.15081 | -75.13749 | 30529 ft | 359 kts | 263° |
| 2026-05-08 00:08 | 40.14812 | -75.16991 | 30889 ft | 358 kts | 263° |
| 2026-05-08 00:08 | 40.14543 | -75.20224 | 31240 ft | 357 kts | 263° |
| 2026-05-08 00:09 | 40.14275 | -75.23445 | 31593 ft | 356 kts | 263° |
| 2026-05-08 00:09 | 40.14008 | -75.26657 | 31943 ft | 355 kts | 263° |
| 2026-05-08 00:09 | 40.13739 | -75.29860 | 32289 ft | 354 kts | 263° |
| 2026-05-08 00:09 | 40.13470 | -75.33061 | 32636 ft | 353 kts | 263° |
| 2026-05-08 00:10 | 40.13200 | -75.36241 | 32995 ft | 352 kts | 263° |
| 2026-05-08 00:10 | 40.12928 | -75.39417 | 33356 ft | 351 kts | 263° |
| 2026-05-08 00:10 | 40.12656 | -75.42572 | 33717 ft | 349 kts | 263° |
| 2026-05-08 00:10 | 40.12384 | -75.45719 | 34060 ft | 348 kts | 263° |
| 2026-05-08 00:11 | 40.12111 | -75.48846 | 34334 ft | 347 kts | 263° |
| 2026-05-08 00:11 | 40.11837 | -75.51994 | 34585 ft | 347 kts | 263° |
| 2026-05-08 00:11 | 40.11566 | -75.55129 | 34821 ft | 348 kts | 263° |
| 2026-05-08 00:11 | 40.11298 | -75.58230 | 35051 ft | 348 kts | 263° |
| 2026-05-08 00:12 | 40.11028 | -75.61373 | 35282 ft | 348 kts | 263° |
| 2026-05-08 00:12 | 40.10757 | -75.64509 | 35509 ft | 348 kts | 263° |
| 2026-05-08 00:12 | 40.10483 | -75.67650 | 35730 ft | 348 kts | 263° |
| 2026-05-08 00:12 | 40.10203 | -75.70796 | 35943 ft | 348 kts | 263° |
| 2026-05-08 00:13 | 40.09920 | -75.73935 | 36138 ft | 349 kts | 263° |
| 2026-05-08 00:13 | 40.09638 | -75.77082 | 36339 ft | 349 kts | 263° |
| 2026-05-08 00:13 | 40.09266 | -75.80210 | 36546 ft | 349 kts | 256° |
| 2026-05-08 00:13 | 40.08441 | -75.83195 | 36736 ft | 352 kts | 247° |
| 2026-05-08 00:14 | 40.07170 | -75.85953 | 36850 ft | 357 kts | 242° |
| 2026-05-08 00:14 | 40.05791 | -75.88668 | 36877 ft | 359 kts | 242° |
| 2026-05-08 00:14 | 40.03095 | -75.93961 | 36876 ft | 360 kts | 242° |
| 2026-05-08 00:15 | 40.00324 | -75.99404 | 36874 ft | 361 kts | 242° |
| 2026-05-08 00:15 | 39.97546 | -76.04862 | 36874 ft | 361 kts | 242° |
| 2026-05-08 00:16 | 39.94769 | -76.10313 | 36871 ft | 361 kts | 242° |
| 2026-05-08 00:16 | 39.91983 | -76.15762 | 36858 ft | 361 kts | 242° |
| 2026-05-08 00:17 | 39.89217 | -76.21179 | 36857 ft | 361 kts | 242° |
| 2026-05-08 00:17 | 39.86444 | -76.26611 | 36854 ft | 361 kts | 242° |
| 2026-05-08 00:18 | 39.83644 | -76.32065 | 36852 ft | 362 kts | 242° |
| 2026-05-08 00:18 | 39.80843 | -76.37505 | 36860 ft | 362 kts | 242° |
| 2026-05-08 00:19 | 39.78040 | -76.42957 | 36860 ft | 363 kts | 242° |
| 2026-05-08 00:19 | 39.75233 | -76.48406 | 36862 ft | 363 kts | 242° |
| 2026-05-08 00:20 | 39.72431 | -76.53843 | 36864 ft | 363 kts | 242° |
| 2026-05-08 00:20 | 39.69602 | -76.59295 | 36863 ft | 363 kts | 242° |
| 2026-05-08 00:21 | 39.66776 | -76.64731 | 36869 ft | 363 kts | 242° |
| 2026-05-08 00:21 | 39.63952 | -76.70172 | 36875 ft | 364 kts | 242° |
| 2026-05-08 00:22 | 39.61164 | -76.75537 | 36865 ft | 364 kts | 242° |
| 2026-05-08 00:22 | 39.58332 | -76.80968 | 36868 ft | 364 kts | 242° |
| 2026-05-08 00:23 | 39.55511 | -76.86364 | 36868 ft | 364 kts | 242° |
| 2026-05-08 00:23 | 39.52670 | -76.91796 | 36878 ft | 364 kts | 242° |
| 2026-05-08 00:24 | 39.49776 | -76.97173 | 36887 ft | 369 kts | 236° |
| 2026-05-08 00:24 | 39.45872 | -77.01695 | 36883 ft | 379 kts | 228° |
| 2026-05-08 00:25 | 39.41778 | -77.05992 | 36885 ft | 379 kts | 228° |
| 2026-05-08 00:25 | 39.37677 | -77.10299 | 36897 ft | 380 kts | 228° |
| 2026-05-08 00:26 | 39.33586 | -77.14602 | 36906 ft | 380 kts | 228° |
| 2026-05-08 00:26 | 39.29475 | -77.18913 | 36905 ft | 380 kts | 228° |
| 2026-05-08 00:27 | 39.25396 | -77.23181 | 36904 ft | 380 kts | 228° |
| 2026-05-08 00:27 | 39.21282 | -77.27483 | 36911 ft | 381 kts | 228° |
| 2026-05-08 00:28 | 39.17160 | -77.31778 | 36907 ft | 381 kts | 228° |
| 2026-05-08 00:28 | 39.13037 | -77.36069 | 36905 ft | 381 kts | 228° |
| 2026-05-08 00:29 | 39.08930 | -77.40337 | 36913 ft | 381 kts | 228° |
| 2026-05-08 00:29 | 39.04780 | -77.44653 | 36914 ft | 381 kts | 228° |
| 2026-05-08 00:30 | 39.00657 | -77.48940 | 36893 ft | 381 kts | 228° |
| 2026-05-08 00:30 | 38.96531 | -77.53213 | 36894 ft | 381 kts | 228° |
| 2026-05-08 00:31 | 38.92402 | -77.57471 | 36899 ft | 381 kts | 228° |
| 2026-05-08 00:31 | 38.88262 | -77.61737 | 36903 ft | 381 kts | 228° |
| 2026-05-08 00:32 | 38.84168 | -77.65963 | 36934 ft | 381 kts | 228° |
| 2026-05-08 00:32 | 38.80031 | -77.70230 | 36939 ft | 381 kts | 228° |
| 2026-05-08 00:33 | 38.75889 | -77.74488 | 36938 ft | 381 kts | 228° |
| 2026-05-08 00:33 | 38.71750 | -77.78728 | 36948 ft | 381 kts | 228° |
| 2026-05-08 00:34 | 38.67618 | -77.82967 | 36945 ft | 380 kts | 229° |
| 2026-05-08 00:34 | 38.63665 | -77.87385 | 36941 ft | 369 kts | 237° |
| 2026-05-08 00:35 | 38.62094 | -77.89924 | 36457 ft | 363 kts | 240° |
| 2026-05-08 00:35 | 38.60573 | -77.92490 | 36047 ft | 360 kts | 240° |
| 2026-05-08 00:35 | 38.59063 | -77.95044 | 35927 ft | 360 kts | 241° |
| 2026-05-08 00:35 | 38.57554 | -77.97604 | 35949 ft | 361 kts | 240° |
| 2026-05-08 00:36 | 38.54519 | -78.02730 | 35946 ft | 361 kts | 240° |
| 2026-05-08 00:36 | 38.51480 | -78.07841 | 35943 ft | 361 kts | 240° |
| 2026-05-08 00:37 | 38.48440 | -78.12934 | 35935 ft | 361 kts | 240° |
| 2026-05-08 00:38 | 38.43875 | -78.20561 | 35928 ft | 360 kts | 240° |
| 2026-05-08 00:38 | 38.41078 | -78.25727 | 35934 ft | 355 kts | 245° |
| 2026-05-08 00:39 | 38.38470 | -78.31097 | 35945 ft | 355 kts | 245° |
| 2026-05-08 00:39 | 38.35862 | -78.36448 | 35927 ft | 355 kts | 245° |
| 2026-05-08 00:40 | 38.33256 | -78.41788 | 35932 ft | 355 kts | 245° |
| 2026-05-08 00:40 | 38.30648 | -78.47121 | 35931 ft | 355 kts | 245° |
| 2026-05-08 00:41 | 38.28038 | -78.52445 | 35930 ft | 354 kts | 245° |
| 2026-05-08 00:41 | 38.25445 | -78.57726 | 35936 ft | 354 kts | 245° |
| 2026-05-08 00:42 | 38.22836 | -78.63022 | 35935 ft | 353 kts | 245° |
| 2026-05-08 00:42 | 38.20235 | -78.68307 | 35946 ft | 352 kts | 245° |
| 2026-05-08 00:43 | 38.17638 | -78.73586 | 35961 ft | 352 kts | 245° |
| 2026-05-08 00:43 | 38.15037 | -78.78855 | 35965 ft | 352 kts | 245° |
| 2026-05-08 00:44 | 38.12430 | -78.84117 | 35970 ft | 351 kts | 245° |
| 2026-05-08 00:44 | 38.09836 | -78.89347 | 35967 ft | 350 kts | 245° |
| 2026-05-08 00:45 | 38.07273 | -78.94528 | 35965 ft | 349 kts | 245° |
| 2026-05-08 00:45 | 38.04688 | -78.99735 | 35958 ft | 348 kts | 245° |
| 2026-05-08 00:46 | 38.02100 | -79.04918 | 35957 ft | 348 kts | 245° |
| 2026-05-08 00:46 | 37.99520 | -79.10092 | 35956 ft | 347 kts | 245° |
| 2026-05-08 00:47 | 37.96943 | -79.15260 | 35999 ft | 346 kts | 246° |
| 2026-05-08 00:47 | 37.94371 | -79.20405 | 36026 ft | 345 kts | 246° |
| 2026-05-08 00:48 | 37.91802 | -79.25529 | 36054 ft | 344 kts | 245° |
| 2026-05-08 00:48 | 37.89230 | -79.30641 | 36079 ft | 344 kts | 246° |
| 2026-05-08 00:49 | 37.86664 | -79.35743 | 36101 ft | 343 kts | 246° |
| 2026-05-08 00:49 | 37.84100 | -79.40823 | 36108 ft | 342 kts | 246° |
| 2026-05-08 00:50 | 37.81537 | -79.45890 | 36106 ft | 341 kts | 246° |
| 2026-05-08 00:50 | 37.78997 | -79.50905 | 36104 ft | 341 kts | 246° |
| 2026-05-08 00:51 | 37.76443 | -79.55942 | 36093 ft | 340 kts | 246° |
| 2026-05-08 00:51 | 37.73886 | -79.60953 | 36062 ft | 339 kts | 246° |
| 2026-05-08 00:52 | 37.71334 | -79.65947 | 36039 ft | 338 kts | 246° |
| 2026-05-08 00:52 | 37.68802 | -79.70939 | 36017 ft | 337 kts | 246° |
| 2026-05-08 00:53 | 37.66268 | -79.75899 | 35963 ft | 336 kts | 246° |
| 2026-05-08 00:53 | 37.63726 | -79.80853 | 35973 ft | 336 kts | 246° |
| 2026-05-08 00:54 | 37.61190 | -79.85793 | 35976 ft | 335 kts | 246° |
| 2026-05-08 00:54 | 37.58669 | -79.90718 | 35976 ft | 335 kts | 246° |
| 2026-05-08 00:55 | 37.56154 | -79.95607 | 35969 ft | 334 kts | 246° |
| 2026-05-08 00:55 | 37.53631 | -80.00519 | 35969 ft | 334 kts | 246° |
| 2026-05-08 00:56 | 37.51106 | -80.05420 | 35971 ft | 333 kts | 246° |
| 2026-05-08 00:56 | 37.49009 | -80.09483 | 35975 ft | 333 kts | 246° |
| 2026-05-08 00:57 | 37.46485 | -80.14361 | 35972 ft | 332 kts | 246° |
| 2026-05-08 00:57 | 37.43960 | -80.19233 | 35971 ft | 332 kts | 246° |
| 2026-05-08 00:58 | 37.41442 | -80.24090 | 35970 ft | 331 kts | 246° |
| 2026-05-08 00:58 | 37.38936 | -80.28924 | 35961 ft | 331 kts | 246° |
| 2026-05-08 00:59 | 37.36416 | -80.33786 | 36006 ft | 331 kts | 246° |
| 2026-05-08 00:59 | 37.33891 | -80.38631 | 36012 ft | 331 kts | 246° |
| 2026-05-08 01:00 | 37.31374 | -80.43455 | 36013 ft | 330 kts | 246° |
| 2026-05-08 01:00 | 37.28857 | -80.48277 | 36015 ft | 331 kts | 246° |
| 2026-05-08 01:01 | 37.26354 | -80.53130 | 36011 ft | 329 kts | 247° |
| 2026-05-08 01:01 | 37.24005 | -80.58035 | 35987 ft | 328 kts | 248° |
| 2026-05-08 01:02 | 37.21685 | -80.62948 | 35988 ft | 327 kts | 248° |
| 2026-05-08 01:02 | 37.19370 | -80.67801 | 35988 ft | 326 kts | 248° |
| 2026-05-08 01:03 | 37.17024 | -80.72674 | 35988 ft | 327 kts | 248° |
| 2026-05-08 01:03 | 37.14672 | -80.77551 | 35985 ft | 327 kts | 248° |
| 2026-05-08 01:04 | 37.12319 | -80.82409 | 35974 ft | 327 kts | 248° |
| 2026-05-08 01:04 | 37.09952 | -80.87291 | 35968 ft | 326 kts | 248° |
| 2026-05-08 01:05 | 37.07598 | -80.92163 | 35977 ft | 327 kts | 248° |
| 2026-05-08 01:05 | 37.05235 | -80.97034 | 35970 ft | 327 kts | 248° |
| 2026-05-08 01:06 | 37.02871 | -81.01897 | 35965 ft | 327 kts | 248° |
| 2026-05-08 01:06 | 37.00505 | -81.06767 | 35987 ft | 327 kts | 248° |
| 2026-05-08 01:07 | 36.98159 | -81.11587 | 35992 ft | 327 kts | 248° |
| 2026-05-08 01:07 | 36.95781 | -81.16464 | 36002 ft | 328 kts | 248° |
| 2026-05-08 01:08 | 36.93404 | -81.21325 | 36012 ft | 328 kts | 248° |
| 2026-05-08 01:08 | 36.91032 | -81.26177 | 36020 ft | 328 kts | 248° |
| 2026-05-08 01:09 | 36.88640 | -81.31050 | 36018 ft | 328 kts | 247° |
| 2026-05-08 01:09 | 36.86245 | -81.35910 | 36027 ft | 329 kts | 247° |
| 2026-05-08 01:10 | 36.83850 | -81.40778 | 36017 ft | 329 kts | 248° |
| 2026-05-08 01:10 | 36.81464 | -81.45645 | 36009 ft | 329 kts | 247° |
| 2026-05-08 01:11 | 36.79060 | -81.50509 | 35992 ft | 329 kts | 247° |
| 2026-05-08 01:11 | 36.76648 | -81.55380 | 35987 ft | 330 kts | 247° |
| 2026-05-08 01:12 | 36.74254 | -81.60221 | 35976 ft | 330 kts | 247° |
| 2026-05-08 01:12 | 36.72174 | -81.65250 | 35973 ft | 324 kts | 253° |
| 2026-05-08 01:13 | 36.70362 | -81.70397 | 35976 ft | 325 kts | 253° |
| 2026-05-08 01:13 | 36.68551 | -81.75551 | 35980 ft | 325 kts | 253° |
| 2026-05-08 01:14 | 36.66734 | -81.80704 | 35986 ft | 325 kts | 253° |
| 2026-05-08 01:14 | 36.64918 | -81.85842 | 35989 ft | 325 kts | 253° |
| 2026-05-08 01:15 | 36.63092 | -81.90989 | 35989 ft | 325 kts | 253° |
| 2026-05-08 01:15 | 36.61263 | -81.96140 | 35993 ft | 325 kts | 253° |
| 2026-05-08 01:16 | 36.59438 | -82.01293 | 35988 ft | 325 kts | 253° |
| 2026-05-08 01:16 | 36.57627 | -82.06398 | 35989 ft | 325 kts | 253° |
| 2026-05-08 01:17 | 36.55782 | -82.11581 | 35986 ft | 325 kts | 252° |
| 2026-05-08 01:17 | 36.53960 | -82.16681 | 35987 ft | 325 kts | 252° |
| 2026-05-08 01:18 | 36.52105 | -82.21862 | 35995 ft | 325 kts | 252° |
| 2026-05-08 01:18 | 36.50275 | -82.26974 | 36006 ft | 325 kts | 252° |
| 2026-05-08 01:19 | 36.48432 | -82.32114 | 36008 ft | 325 kts | 252° |
| 2026-05-08 01:19 | 36.46588 | -82.37244 | 36006 ft | 325 kts | 252° |
| 2026-05-08 01:20 | 36.44739 | -82.42380 | 36006 ft | 325 kts | 252° |
| 2026-05-08 01:20 | 36.42893 | -82.47511 | 36009 ft | 326 kts | 252° |
| 2026-05-08 01:21 | 36.41035 | -82.52650 | 36004 ft | 326 kts | 252° |
| 2026-05-08 01:21 | 36.39177 | -82.57782 | 36003 ft | 326 kts | 252° |
| 2026-05-08 01:22 | 36.37324 | -82.62905 | 35492 ft | 324 kts | 252° |
| 2026-05-08 01:22 | 36.36400 | -82.65454 | 34768 ft | 325 kts | 252° |
| 2026-05-08 01:22 | 36.35468 | -82.68018 | 34058 ft | 326 kts | 252° |
| 2026-05-08 01:22 | 36.34530 | -82.70594 | 33239 ft | 328 kts | 252° |
| 2026-05-08 01:23 | 36.33601 | -82.73147 | 32377 ft | 331 kts | 252° |
| 2026-05-08 01:23 | 36.32650 | -82.75764 | 31468 ft | 334 kts | 252° |
| 2026-05-08 01:23 | 36.31691 | -82.78408 | 30554 ft | 338 kts | 252° |
| 2026-05-08 01:23 | 36.30723 | -82.81072 | 29532 ft | 343 kts | 252° |
| 2026-05-08 01:24 | 36.29726 | -82.83807 | 28292 ft | 350 kts | 251° |
| 2026-05-08 01:24 | 36.28712 | -82.86589 | 26981 ft | 360 kts | 251° |
| 2026-05-08 01:24 | 36.27674 | -82.89427 | 26030 ft | 362 kts | 251° |
| 2026-05-08 01:24 | 36.26631 | -82.92270 | 25153 ft | 363 kts | 250° |
| 2026-05-08 01:25 | 36.25585 | -82.95122 | 24335 ft | 364 kts | 250° |
| 2026-05-08 01:25 | 36.24536 | -82.97984 | 23524 ft | 366 kts | 250° |
| 2026-05-08 01:25 | 36.23488 | -83.00842 | 22648 ft | 366 kts | 250° |
| 2026-05-08 01:25 | 36.22425 | -83.03728 | 21866 ft | 365 kts | 250° |
| 2026-05-08 01:26 | 36.21376 | -83.06572 | 21164 ft | 362 kts | 250° |
| 2026-05-08 01:26 | 36.20333 | -83.09399 | 20481 ft | 360 kts | 250° |
| 2026-05-08 01:26 | 36.19297 | -83.12212 | 19828 ft | 358 kts | 250° |
| 2026-05-08 01:26 | 36.18274 | -83.14986 | 19189 ft | 356 kts | 250° |
| 2026-05-08 01:27 | 36.17242 | -83.17780 | 18568 ft | 354 kts | 249° |
| 2026-05-08 01:27 | 36.16219 | -83.20548 | 17878 ft | 353 kts | 249° |
| 2026-05-08 01:27 | 36.15202 | -83.23301 | 17189 ft | 351 kts | 250° |
| 2026-05-08 01:27 | 36.14193 | -83.26037 | 16529 ft | 349 kts | 249° |
| 2026-05-08 01:28 | 36.13185 | -83.28764 | 15888 ft | 348 kts | 249° |
| 2026-05-08 01:28 | 36.12180 | -83.31476 | 15278 ft | 346 kts | 249° |
| 2026-05-08 01:28 | 36.11179 | -83.34172 | 14691 ft | 345 kts | 249° |
| 2026-05-08 01:28 | 36.10183 | -83.36857 | 14107 ft | 343 kts | 250° |
| 2026-05-08 01:29 | 36.09194 | -83.39522 | 13834 ft | 333 kts | 250° |
| 2026-05-08 01:29 | 36.08243 | -83.42067 | 13694 ft | 319 kts | 250° |
| 2026-05-08 01:29 | 36.07328 | -83.44506 | 13554 ft | 306 kts | 250° |
| 2026-05-08 01:29 | 36.06451 | -83.46847 | 13419 ft | 294 kts | 250° |
| 2026-05-08 01:30 | 36.05612 | -83.49089 | 13287 ft | 283 kts | 250° |
| 2026-05-08 01:30 | 36.04800 | -83.51269 | 13146 ft | 273 kts | 250° |
| 2026-05-08 01:30 | 36.04014 | -83.53378 | 12903 ft | 268 kts | 250° |
| 2026-05-08 01:30 | 36.03238 | -83.55463 | 12547 ft | 267 kts | 250° |
| 2026-05-08 01:31 | 36.02544 | -83.57561 | 11937 ft | 270 kts | 261° |
| 2026-05-08 01:31 | 36.02556 | -83.59894 | 11142 ft | 280 kts | 285° |
| 2026-05-08 01:31 | 36.03472 | -83.62058 | 10342 ft | 295 kts | 310° |
| 2026-05-08 01:31 | 36.04892 | -83.63839 | 10155 ft | 287 kts | 313° |
| 2026-05-08 01:32 | 36.06292 | -83.65531 | 10028 ft | 276 kts | 314° |
| 2026-05-08 01:32 | 36.07645 | -83.67160 | 9859 ft | 267 kts | 314° |
| 2026-05-08 01:32 | 36.08971 | -83.68759 | 9510 ft | 265 kts | 314° |
| 2026-05-08 01:32 | 36.10283 | -83.70353 | 9120 ft | 264 kts | 314° |
| 2026-05-08 01:33 | 36.11522 | -83.72022 | 8691 ft | 263 kts | 302° |
| 2026-05-08 01:33 | 36.12116 | -83.74122 | 8295 ft | 262 kts | 275° |
| 2026-05-08 01:33 | 36.11812 | -83.76334 | 7858 ft | 266 kts | 247° |
| 2026-05-08 01:33 | 36.10658 | -83.78128 | 7464 ft | 272 kts | 219° |
| 2026-05-08 01:34 | 36.08930 | -83.79097 | 7050 ft | 277 kts | 197° |
| 2026-05-08 01:34 | 36.07047 | -83.79637 | 6634 ft | 278 kts | 194° |
| 2026-05-08 01:34 | 36.05165 | -83.80141 | 6253 ft | 276 kts | 193° |
| 2026-05-08 01:34 | 36.03290 | -83.80646 | 5880 ft | 273 kts | 193° |
| 2026-05-08 01:35 | 36.01475 | -83.81138 | 5739 ft | 261 kts | 194° |
| 2026-05-08 01:35 | 35.99733 | -83.81607 | 5615 ft | 250 kts | 193° |
| 2026-05-08 01:35 | 35.98096 | -83.82048 | 5486 ft | 240 kts | 193° |
| 2026-05-08 01:35 | 35.96464 | -83.82487 | 5280 ft | 233 kts | 194° |
| 2026-05-08 01:36 | 35.94885 | -83.82914 | 4985 ft | 232 kts | 194° |
| 2026-05-08 01:36 | 35.93429 | -83.83639 | 4667 ft | 229 kts | 214° |
| 2026-05-08 01:36 | 35.92249 | -83.84982 | 4037 ft | 238 kts | 237° |
| 2026-05-08 01:36 | 35.91492 | -83.86795 | 3559 ft | 233 kts | 248° |
| 2026-05-08 01:37 | 35.90767 | -83.88500 | 3385 ft | 217 kts | 234° |
| 2026-05-08 01:37 | 35.89635 | -83.89634 | 3144 ft | 210 kts | 202° |
| 2026-05-08 01:37 | 35.88302 | -83.90182 | 2838 ft | 193 kts | 209° |
| 2026-05-08 01:37 | 35.87417 | -83.91278 | 2579 ft | 173 kts | 238° |
| 2026-05-08 01:38 | 35.86626 | -83.92352 | 2353 ft | 167 kts | 226° |
| 2026-05-08 01:38 | 35.85811 | -83.93327 | 2159 ft | 157 kts | 226° |
| 2026-05-08 01:38 | 35.85050 | -83.94247 | 1936 ft | 150 kts | 226° |
| 2026-05-08 01:38 | 35.84319 | -83.95137 | 1734 ft | 146 kts | 225° |
| 2026-05-08 01:39 | 35.83612 | -83.95999 | 1540 ft | 142 kts | 224° |
| 2026-05-08 01:39 | 35.82913 | -83.96852 | 1358 ft | 140 kts | 224° |
| 2026-05-08 01:39 | 35.82226 | -83.97691 | 1169 ft | 138 kts | 224° |
| 2026-05-08 01:39 | 35.81545 | -83.98521 | 995 ft | 137 kts | 224° |
| 2026-05-08 01:40 | 35.80922 | -83.99282 | 965 ft | 108 kts | 225° |
| 2026-05-08 01:40 | 35.80509 | -83.99787 | 963 ft | 66 kts | 225° |
| 2026-05-08 01:40 | 35.80224 | -84.00130 | 960 ft | 52 kts | 225° |
| 2026-05-08 01:40 | 35.80050 | -84.00295 | 960 ft | 20 kts | 167° |
| 2026-05-08 01:41 | 35.80038 | -84.00189 | 966 ft | 13 kts | 48° |
| 2026-05-08 01:41 | 35.80096 | -84.00114 | 969 ft | 11 kts | 46° |
| 2026-05-08 01:41 | 35.80143 | -84.00053 | 969 ft | 9 kts | 47° |
| 2026-05-08 01:41 | 35.80196 | -83.99983 | 968 ft | 14 kts | 46° |
| 2026-05-08 01:42 | 35.80277 | -83.99883 | 968 ft | 19 kts | 47° |
| 2026-05-08 01:42 | 35.80383 | -83.99756 | 967 ft | 24 kts | 43° |
| 2026-05-08 01:42 | 35.80520 | -83.99612 | 969 ft | 28 kts | 42° |
| 2026-05-08 01:42 | 35.80634 | -83.99442 | 967 ft | 23 kts | 86° |
| 2026-05-08 01:43 | 35.80685 | -83.99317 | 978 ft | 18 kts | 20° |
| 2026-05-08 01:43 | 35.80725 | -83.99201 | 973 ft | 11 kts | 88° |
| 2026-05-08 01:43 | 35.80689 | -83.99125 | 984 ft | 2 kts | 134° |
| 2026-05-08 01:43 | 35.80688 | -83.99124 | 984 ft | 0 kts | 135° |